Time;durP1;ratioP1;P1;durP2;ratioP2;P2;SDS_P1;SDS_P2;PMS_P1;PMS_P2;Temp;Humidity;BMP_temperature;BMP_pressure;BME280_temperature;BME280_humidity;BME280_pressure;Samples;Min_cycle;Max_cycle;Signal;HPM_P1;HPM_P2
2022/12/11 00:01:22;;;;;;;16.33;8.40;;;-2.30;99.90;;;;;;5055656;28;20045;-69
2022/12/11 00:03:48;;;;;;;16.38;8.68;;;-2.30;99.90;;;;;;5052355;28;20540;-67
2022/12/11 00:06:16;;;;;;;18.77;9.25;;;-2.20;99.90;;;;;;5052952;28;20673;-68
2022/12/11 00:08:42;;;;;;;22.85;8.60;;;-2.30;99.90;;;;;;5050105;28;20127;-68
2022/12/11 00:11:11;;;;;;;20.10;9.07;;;-2.20;99.90;;;;;;5056645;28;20029;-68
2022/12/11 00:13:37;;;;;;;18.00;8.98;;;-2.20;99.90;;;;;;5053941;28;20090;-68
2022/12/11 00:16:03;;;;;;;20.13;9.10;;;-2.10;99.90;;;;;;5059983;28;20040;-68
2022/12/11 00:18:28;;;;;;;18.70;9.05;;;-2.10;99.90;;;;;;5049373;28;20733;-68
2022/12/11 00:20:54;;;;;;;16.10;8.70;;;-2.10;99.90;;;;;;5043352;28;20072;-68
2022/12/11 00:23:20;;;;;;;15.88;8.55;;;-2.10;99.90;;;;;;5046407;28;20028;-68
2022/12/11 00:25:46;;;;;;;22.75;9.68;;;-2.10;99.90;;;;;;5039687;28;20049;-68
2022/12/11 00:28:14;;;;;;;18.88;8.52;;;-2.10;99.90;;;;;;5062901;28;20040;-68
2022/12/11 00:30:43;;;;;;;21.45;8.32;;;-2.20;99.90;;;;;;5054083;28;20061;-68
2022/12/11 00:33:10;;;;;;;22.45;9.73;;;-2.20;99.90;;;;;;5039125;28;20056;-70
2022/12/11 00:35:44;;;;;;;18.85;8.48;;;-2.20;99.90;;;;;;5056554;28;20036;-69
2022/12/11 00:38:15;;;;;;;21.02;9.20;;;-2.10;99.90;;;;;;5045028;28;20068;-70
2022/12/11 00:40:41;;;;;;;18.23;8.23;;;-2.10;99.90;;;;;;5052572;28;20072;-69
2022/12/11 00:43:07;;;;;;;21.23;8.57;;;-2.10;99.90;;;;;;5045474;28;20457;-68
2022/12/11 00:45:37;;;;;;;19.77;9.07;;;-2.00;99.90;;;;;;5035131;28;20070;-67
2022/12/11 00:48:04;;;;;;;16.55;8.73;;;-2.10;99.90;;;;;;5030689;28;20041;-67
2022/12/11 00:50:29;;;;;;;17.48;8.85;;;-2.00;99.90;;;;;;5041991;28;20036;-68
2022/12/11 00:52:55;;;;;;;17.13;8.32;;;-2.00;99.90;;;;;;5046021;28;20045;-68
2022/12/11 00:55:20;;;;;;;23.52;9.43;;;-2.00;99.90;;;;;;5041739;28;20028;-67
2022/12/11 00:57:46;;;;;;;23.42;9.63;;;-1.90;99.90;;;;;;5047084;28;20041;-68
2022/12/11 01:00:12;;;;;;;22.77;9.82;;;-1.90;99.90;;;;;;5048845;28;20043;-67
2022/12/11 01:02:38;;;;;;;18.00;9.23;;;-1.90;99.90;;;;;;5041920;28;20065;-67
2022/12/11 01:05:04;;;;;;;22.05;8.50;;;-1.90;99.90;;;;;;5035569;28;20060;-68
2022/12/11 01:07:30;;;;;;;21.95;10.13;;;-1.90;99.90;;;;;;5044611;28;20053;-68
2022/12/11 01:12:40;;;;;;;22.75;10.40;;;-1.80;99.90;;;;;;5056138;28;20044;-66
2022/12/11 01:15:06;;;;;;;18.13;9.60;;;-1.80;99.90;;;;;;5055703;28;20059;-66
2022/12/11 01:17:31;;;;;;;22.92;8.98;;;-1.80;99.90;;;;;;5045648;28;20041;-66
2022/12/11 01:19:57;;;;;;;18.42;8.65;;;-1.70;99.90;;;;;;5036467;28;20412;-66
2022/12/11 01:22:23;;;;;;;22.17;9.65;;;-1.80;99.90;;;;;;5047295;28;20044;-67
2022/12/11 01:24:48;;;;;;;19.70;9.43;;;-1.70;99.90;;;;;;5038393;28;20037;-67
2022/12/11 01:27:14;;;;;;;19.52;9.23;;;-1.70;99.90;;;;;;5049363;28;20036;-67
2022/12/11 01:29:40;;;;;;;20.08;9.63;;;-1.70;99.90;;;;;;5038672;28;20128;-66
2022/12/11 01:32:05;;;;;;;19.10;9.20;;;-1.70;99.90;;;;;;5049325;28;20428;-67
2022/12/11 01:34:32;;;;;;;19.85;9.30;;;-1.70;99.90;;;;;;5032879;28;20045;-67
2022/12/11 01:36:58;;;;;;;17.00;8.38;;;-1.70;99.90;;;;;;5045716;28;20239;-68
2022/12/11 01:39:23;;;;;;;19.63;9.23;;;-1.60;99.90;;;;;;5028703;28;20036;-68
2022/12/11 01:41:49;;;;;;;20.00;9.68;;;-1.60;99.90;;;;;;5045764;28;20102;-67
2022/12/11 01:44:15;;;;;;;22.83;10.27;;;-1.60;99.90;;;;;;5025765;28;20041;-67
2022/12/11 01:46:41;;;;;;;20.63;9.00;;;-1.60;99.90;;;;;;5044242;28;20071;-66
2022/12/11 01:49:11;;;;;;;26.65;10.65;;;-1.50;99.90;;;;;;5036007;28;20042;-67
2022/12/11 01:51:47;;;;;;;23.13;10.13;;;-1.60;99.90;;;;;;5051481;28;20052;-68
2022/12/11 01:54:16;;;;;;;;;;;-1.70;99.90;;;;;;5036081;28;20083;-68
2022/12/11 01:56:43;;;;;;;17.88;8.68;;;-1.60;99.90;;;;;;5045714;28;20021;-67
2022/12/11 01:59:10;;;;;;;19.30;9.20;;;-1.60;99.90;;;;;;5039845;28;20073;-68
2022/12/11 02:01:46;;;;;;;17.27;8.70;;;-1.60;99.90;;;;;;5049263;28;20041;-68
2022/12/11 02:04:13;;;;;;;19.27;9.23;;;-1.60;99.90;;;;;;5051879;28;20131;-68
2022/12/11 02:06:42;;;;;;;21.15;10.38;;;-1.60;99.90;;;;;;5046817;28;20045;-68
2022/12/11 02:09:31;;;;;;;21.58;10.75;;;-1.60;99.90;;;;;;5035525;28;20150;-67
2022/12/11 02:12:08;;;;;;;21.85;10.80;;;-1.60;99.90;;;;;;5042714;28;20128;-69
2022/12/11 02:14:44;;;;;;;26.25;12.38;;;-1.60;99.90;;;;;;5033779;28;20452;-68
2022/12/11 02:17:37;;;;;;;25.88;12.40;;;-1.70;99.90;;;;;;5050758;28;20037;-68
2022/12/11 02:20:29;;;;;;;27.15;12.48;;;-1.80;99.90;;;;;;5037472;28;20619;-68
2022/12/11 02:23:09;;;;;;;32.15;14.30;;;-1.70;99.90;;;;;;5047334;28;20029;-68
2022/12/11 02:26:05;;;;;;;28.20;13.57;;;-1.80;99.90;;;;;;5040326;28;20413;-68
2022/12/11 02:28:38;;;;;;;28.92;13.18;;;-1.80;99.90;;;;;;5037525;28;20049;-68
2022/12/11 02:31:16;;;;;;;28.73;13.68;;;-1.90;99.90;;;;;;5045633;28;20040;-68
2022/12/11 02:33:53;;;;;;;34.90;14.70;;;-2.00;99.90;;;;;;5038968;28;20062;-68
2022/12/11 02:36:22;;;;;;;34.72;15.13;;;-2.00;99.90;;;;;;5039328;28;20543;-68
2022/12/11 02:38:50;;;;;;;33.47;15.65;;;-2.10;99.90;;;;;;5042019;28;20112;-68
2022/12/11 02:41:19;;;;;;;41.67;15.63;;;-2.10;99.90;;;;;;5038719;28;20040;-68
2022/12/11 02:43:46;;;;;;;38.30;15.80;;;-2.20;99.90;;;;;;5036630;28;20053;-68
2022/12/11 02:46:13;;;;;;;32.78;14.25;;;-2.10;99.90;;;;;;5041546;28;20493;-68
2022/12/11 02:48:40;;;;;;;39.22;16.60;;;-2.00;99.90;;;;;;5025024;28;20548;-68
2022/12/11 02:51:08;;;;;;;39.45;16.65;;;-2.00;99.90;;;;;;5042296;28;20036;-68
2022/12/11 02:53:38;;;;;;;35.63;14.90;;;-2.00;99.90;;;;;;5040666;28;20377;-68
2022/12/11 02:56:18;;;;;;;37.38;15.55;;;-2.00;99.90;;;;;;5040854;28;20507;-68
2022/12/11 02:58:56;;;;;;;38.13;17.02;;;-1.90;99.90;;;;;;5040078;28;20040;-68
2022/12/11 03:01:22;;;;;;;36.83;17.02;;;-1.80;99.90;;;;;;5042312;28;20045;-68
2022/12/11 03:03:48;;;;;;;33.05;14.35;;;-1.70;99.90;;;;;;5041450;28;20045;-68
2022/12/11 03:06:19;;;;;;;33.95;15.43;;;-1.70;99.90;;;;;;5044753;28;20045;-67
2022/12/11 03:08:45;;;;;;;35.25;14.70;;;-1.70;99.90;;;;;;5035208;28;20112;-68
2022/12/11 03:11:12;;;;;;;44.65;16.63;;;-1.60;99.90;;;;;;5046999;28;20117;-68
2022/12/11 03:13:40;;;;;;;39.10;14.75;;;-1.60;99.90;;;;;;5043417;28;20041;-68
2022/12/11 03:16:09;;;;;;;39.15;16.42;;;-1.60;99.90;;;;;;5042643;28;20052;-68
2022/12/11 03:19:02;;;;;;;36.63;15.52;;;-1.60;99.90;;;;;;5044280;28;20041;-68
2022/12/11 03:22:02;;;;;;;38.17;16.48;;;-1.50;99.90;;;;;;5043738;28;20059;-66
2022/12/11 03:24:36;;;;;;;41.30;15.68;;;-1.50;99.90;;;;;;5042422;28;20033;-67
2022/12/11 03:27:26;;;;;;;41.55;16.98;;;-1.60;99.90;;;;;;5049132;28;20045;-67
2022/12/11 03:30:03;;;;;;;45.90;17.13;;;-1.70;99.90;;;;;;5044457;28;20048;-68
2022/12/11 03:32:39;;;;;;;59.95;18.38;;;-1.70;99.90;;;;;;5040860;28;20064;-66
2022/12/11 03:35:13;;;;;;;50.05;19.02;;;-1.80;99.90;;;;;;5040962;28;20509;-67
2022/12/11 03:37:41;;;;;;;48.70;19.15;;;-1.70;99.90;;;;;;5034082;28;20084;-67
2022/12/11 03:40:12;;;;;;;57.63;20.33;;;-1.70;99.90;;;;;;5030924;28;20040;-68
2022/12/11 03:42:40;;;;;;;46.83;19.10;;;-1.60;99.90;;;;;;5040133;28;20091;-67
2022/12/11 03:45:07;;;;;;;52.50;18.65;;;-1.60;99.90;;;;;;5042478;28;20049;-67
2022/12/11 03:47:33;;;;;;;44.42;18.35;;;-1.50;99.90;;;;;;5049152;28;20075;-67
2022/12/11 03:50:02;;;;;;;53.28;20.25;;;-1.40;99.90;;;;;;5043266;28;20043;-69
2022/12/11 03:52:28;;;;;;;54.67;18.40;;;-1.40;99.90;;;;;;5048524;28;20152;-68
2022/12/11 03:54:58;;;;;;;56.20;20.38;;;-1.50;99.90;;;;;;5043534;28;20116;-68
2022/12/11 03:57:29;;;;;;;54.28;18.00;;;-1.50;99.90;;;;;;5042595;28;20714;-67
2022/12/11 03:59:55;;;;;;;58.63;21.48;;;-1.50;99.90;;;;;;5034325;28;20033;-67
2022/12/11 04:02:20;;;;;;;53.53;20.13;;;-1.50;99.90;;;;;;5052605;28;20399;-68
2022/12/11 04:04:46;;;;;;;65.65;21.60;;;-1.40;99.90;;;;;;5057413;28;20037;-69
2022/12/11 04:07:12;;;;;;;55.65;20.70;;;-1.50;99.90;;;;;;5041556;28;20045;-68
2022/12/11 04:09:37;;;;;;;65.00;23.08;;;-1.40;99.90;;;;;;5033273;28;20040;-68
2022/12/11 04:12:03;;;;;;;66.47;21.05;;;-1.40;99.90;;;;;;5047956;28;20091;-68
2022/12/11 04:24:13;;;;;;;59.63;21.52;;;-1.40;99.90;;;;;;5047439;28;20040;-69
2022/12/11 04:25:27;;;;;;;66.18;23.35;;;-1.50;99.90;;;;;;5039685;28;20045;-69
2022/12/11 04:27:53;;;;;;;59.47;21.00;;;-1.50;99.90;;;;;;5049876;28;20091;-70
2022/12/11 04:30:21;;;;;;;84.90;24.98;;;-1.50;99.90;;;;;;5041703;28;20461;-69
2022/12/11 04:32:47;;;;;;;73.43;23.95;;;-1.50;99.90;;;;;;5029470;28;20049;-68
2022/12/11 04:35:13;;;;;;;71.70;22.95;;;-1.60;99.90;;;;;;5041001;28;20033;-68
2022/12/11 04:37:39;;;;;;;71.82;22.52;;;-1.50;99.90;;;;;;5040368;28;20470;-68
2022/12/11 04:40:08;;;;;;;60.20;19.83;;;-1.50;99.90;;;;;;5038870;28;20444;-68
2022/12/11 04:42:33;;;;;;;70.00;22.80;;;-1.60;99.90;;;;;;5049695;28;20428;-68
2022/12/11 04:44:59;;;;;;;61.85;21.20;;;-1.60;99.90;;;;;;5040695;28;20052;-67
2022/12/11 04:47:25;;;;;;;74.57;23.17;;;-1.60;99.90;;;;;;5041324;28;20073;-67
2022/12/11 04:49:50;;;;;;;70.90;22.02;;;-1.60;99.90;;;;;;5036088;28;20032;-68
2022/12/11 04:52:17;;;;;;;70.18;22.38;;;-1.60;99.90;;;;;;5045330;28;20040;-68
2022/12/11 04:54:42;;;;;;;80.72;24.13;;;-1.70;99.90;;;;;;5041266;28;20489;-68
2022/12/11 04:57:08;;;;;;;67.70;22.00;;;-1.60;99.90;;;;;;5049294;28;20059;-68
2022/12/11 04:59:34;;;;;;;66.65;22.27;;;-1.70;99.90;;;;;;5047645;28;20083;-68
2022/12/11 05:02:00;;;;;;;61.08;21.00;;;-1.60;99.90;;;;;;5046551;28;20099;-68
2022/12/11 05:04:31;;;;;;;76.10;22.27;;;-1.50;99.90;;;;;;5035969;28;20159;-67
2022/12/11 05:06:56;;;;;;;72.90;21.80;;;-1.50;99.90;;;;;;5037343;28;20134;-68
2022/12/11 05:09:22;;;;;;;77.78;21.70;;;-1.50;99.90;;;;;;5036188;28;20505;-68
2022/12/11 05:11:47;;;;;;;75.93;23.50;;;-1.50;99.90;;;;;;5045338;28;20044;-68
2022/12/11 05:14:13;;;;;;;72.13;22.05;;;-1.50;99.90;;;;;;5054698;28;20051;-68
2022/12/11 05:16:39;;;;;;;81.45;24.92;;;-1.60;99.90;;;;;;5058131;28;20045;-68
2022/12/11 05:19:04;;;;;;;59.63;21.00;;;-1.60;99.90;;;;;;5047307;28;20067;-68
2022/12/11 05:21:30;;;;;;;57.05;20.83;;;-1.60;99.90;;;;;;5043870;28;20116;-68
2022/12/11 05:23:55;;;;;;;61.72;20.90;;;-1.50;99.90;;;;;;5037373;28;20041;-68
2022/12/11 05:26:21;;;;;;;60.92;20.35;;;-1.50;99.90;;;;;;5039230;28;20044;-68
2022/12/11 05:28:52;;;;;;;59.90;19.63;;;-1.50;99.90;;;;;;5031911;28;20412;-68
2022/12/11 05:31:20;;;;;;;54.53;18.60;;;-1.60;99.90;;;;;;5041290;28;20037;-68
2022/12/11 05:33:47;;;;;;;71.03;22.42;;;-1.70;99.90;;;;;;5039615;28;20033;-67
2022/12/11 05:36:16;;;;;;;69.22;21.50;;;-1.80;99.90;;;;;;5045434;28;20078;-68
2022/12/11 05:38:41;;;;;;;59.15;19.50;;;-1.80;99.90;;;;;;5033462;28;20060;-68
2022/12/11 05:41:07;;;;;;;61.38;19.55;;;-1.80;99.90;;;;;;5043373;28;20040;-67
2022/12/11 05:43:34;;;;;;;50.75;17.73;;;-1.80;99.90;;;;;;5039435;28;20042;-67
2022/12/11 05:46:09;;;;;;;51.05;16.98;;;-1.70;99.90;;;;;;5043466;28;20052;-68
2022/12/11 05:48:35;;;;;;;48.50;18.05;;;-1.70;99.90;;;;;;5041576;28;20037;-68
2022/12/11 05:51:02;;;;;;;49.80;17.52;;;-1.60;99.90;;;;;;5043092;28;20040;-68
2022/12/11 05:53:29;;;;;;;54.47;19.05;;;-1.50;99.90;;;;;;5055486;28;20068;-67
2022/12/11 05:55:59;;;;;;;52.92;17.20;;;-1.50;99.90;;;;;;5059468;28;20400;-66
2022/12/11 05:58:25;;;;;;;48.22;17.95;;;-1.50;99.90;;;;;;5036843;28;20141;-68
2022/12/11 06:00:50;;;;;;;50.83;18.05;;;-1.50;99.90;;;;;;5038931;28;20037;-67
2022/12/11 06:03:16;;;;;;;53.38;18.33;;;-1.40;99.90;;;;;;5046149;28;20080;-69
2022/12/11 06:05:42;;;;;;;47.55;18.15;;;-1.40;99.90;;;;;;5062408;28;20504;-67
2022/12/11 06:08:08;;;;;;;55.05;17.55;;;-1.40;99.90;;;;;;5030821;28;20091;-68
2022/12/11 06:10:34;;;;;;;52.35;18.42;;;-1.30;99.90;;;;;;5040301;28;20037;-67
2022/12/11 06:13:00;;;;;;;47.33;16.70;;;-1.30;99.90;;;;;;5038625;28;20041;-67
2022/12/11 06:15:26;;;;;;;56.30;18.52;;;-1.40;99.90;;;;;;5036916;28;20044;-66
2022/12/11 06:17:52;;;;;;;53.63;17.45;;;-1.50;99.90;;;;;;5048096;28;20040;-66
2022/12/11 06:20:18;;;;;;;48.63;17.45;;;-1.50;99.90;;;;;;5039832;28;20072;-66
2022/12/11 06:22:43;;;;;;;55.55;18.40;;;-1.50;99.90;;;;;;5047469;28;20064;-66
2022/12/11 06:25:09;;;;;;;56.05;18.38;;;-1.50;99.90;;;;;;5039834;28;20060;-66
2022/12/11 06:27:34;;;;;;;49.55;17.50;;;-1.50;99.90;;;;;;5054933;28;20044;-67
2022/12/11 06:30:00;;;;;;;54.10;18.00;;;-1.40;99.90;;;;;;5046158;28;20157;-71
2022/12/11 06:32:26;;;;;;;53.40;19.13;;;-1.40;99.90;;;;;;5043596;28;20045;-69
2022/12/11 06:34:52;;;;;;;50.60;17.05;;;-1.50;99.90;;;;;;5036435;28;20048;-71
2022/12/11 06:37:17;;;;;;;56.85;18.77;;;-1.50;99.90;;;;;;5045889;28;21017;-72
2022/12/11 06:39:43;;;;;;;57.60;19.48;;;-1.50;99.90;;;;;;5034690;28;20041;-73
2022/12/11 06:42:09;;;;;;;61.72;19.17;;;-1.50;99.90;;;;;;5047999;28;20044;-70
2022/12/11 06:44:34;;;;;;;56.83;19.10;;;-1.40;99.90;;;;;;5032504;28;20048;-70
2022/12/11 06:47:00;;;;;;;58.53;20.00;;;-1.40;99.90;;;;;;5050565;28;20052;-73
2022/12/11 06:49:26;;;;;;;57.40;19.80;;;-1.40;99.90;;;;;;5047822;28;20048;-71
2022/12/11 06:51:51;;;;;;;53.15;19.00;;;-1.50;99.90;;;;;;5053426;28;20114;-71
2022/12/11 06:54:17;;;;;;;58.08;20.17;;;-1.40;99.90;;;;;;5047714;28;20048;-73
2022/12/11 06:56:43;;;;;;;57.38;18.92;;;-1.40;99.90;;;;;;5050758;28;20590;-73
2022/12/11 06:59:11;;;;;;;50.05;18.48;;;-1.40;99.90;;;;;;5047927;28;20037;-73
2022/12/11 07:01:37;;;;;;;52.97;17.40;;;-1.40;99.90;;;;;;5056514;28;20033;-73
2022/12/11 07:04:03;;;;;;;47.50;17.38;;;-1.40;99.90;;;;;;5055597;28;20052;-70
2022/12/11 07:06:28;;;;;;;50.60;17.83;;;-1.40;99.90;;;;;;5055067;28;20536;-71
2022/12/11 07:08:55;;;;;;;49.90;16.60;;;-1.40;99.90;;;;;;5041349;28;20071;-68
2022/12/11 07:11:21;;;;;;;46.08;16.90;;;-1.40;99.90;;;;;;5042245;28;20037;-70
2022/12/11 07:13:47;;;;;;;50.15;17.00;;;-1.40;99.90;;;;;;5049865;28;20067;-69
2022/12/11 07:16:15;;;;;;;54.05;18.05;;;-1.40;99.90;;;;;;5035445;28;20058;-69
2022/12/11 07:18:46;;;;;;;46.85;16.58;;;-1.40;99.90;;;;;;5034135;28;20048;-69
2022/12/11 07:21:13;;;;;;;51.58;17.25;;;-1.30;99.90;;;;;;5043804;28;20115;-69
2022/12/11 07:23:38;;;;;;;52.78;17.45;;;-1.30;99.90;;;;;;5035413;28;20044;-69
2022/12/11 07:26:07;;;;;;;54.92;16.08;;;-1.30;99.90;;;;;;5044693;28;20049;-70
2022/12/11 07:28:33;;;;;;;50.55;16.13;;;-1.30;99.90;;;;;;5041727;28;20041;-71
2022/12/11 07:31:06;;;;;;;55.10;17.45;;;-1.30;99.90;;;;;;5046025;28;20044;-68
2022/12/11 07:33:32;;;;;;;42.17;14.95;;;-1.40;99.90;;;;;;5049444;28;20037;-71
2022/12/11 07:36:01;;;;;;;46.13;14.90;;;-1.40;99.90;;;;;;5041958;28;20783;-71
2022/12/11 07:38:27;;;;;;;47.20;16.08;;;-1.40;99.90;;;;;;5036767;28;20124;-71
2022/12/11 07:40:52;;;;;;;51.00;16.98;;;-1.40;99.90;;;;;;5044532;28;20124;-71
2022/12/11 07:43:18;;;;;;;50.33;16.95;;;-1.30;99.90;;;;;;5046358;28;20537;-68
2022/12/11 07:45:43;;;;;;;50.08;17.05;;;-1.30;99.90;;;;;;5039733;28;20041;-71
2022/12/11 07:48:09;;;;;;;50.03;16.13;;;-1.30;99.90;;;;;;5046988;28;20040;-68
2022/12/11 07:50:35;;;;;;;44.90;15.85;;;-1.30;99.90;;;;;;5040908;28;20070;-68
2022/12/11 07:53:01;;;;;;;49.63;16.73;;;-1.20;99.90;;;;;;5048426;28;20059;-71
2022/12/11 07:55:27;;;;;;;49.13;16.13;;;-1.20;99.90;;;;;;5040302;28;20083;-67
2022/12/11 07:57:53;;;;;;;37.28;14.18;;;-1.20;99.90;;;;;;5048638;28;20501;-70
2022/12/11 08:00:18;;;;;;;42.00;13.98;;;-1.20;99.90;;;;;;5040569;28;20596;-66
2022/12/11 08:02:44;;;;;;;40.72;13.85;;;-1.10;99.90;;;;;;5052311;28;20041;-67
2022/12/11 08:05:11;;;;;;;41.15;12.98;;;-1.10;99.90;;;;;;5043409;28;20111;-69
2022/12/11 08:07:36;;;;;;;35.38;12.60;;;-1.10;99.90;;;;;;5039890;28;20409;-69
2022/12/11 08:10:03;;;;;;;40.72;14.50;;;-1.30;99.90;;;;;;5041229;28;20037;-70
2022/12/11 08:12:29;;;;;;;36.83;12.32;;;-1.30;99.90;;;;;;5050846;28;20158;-69
2022/12/11 08:14:55;;;;;;;35.22;13.23;;;-1.30;99.90;;;;;;5033744;28;20049;-69
2022/12/11 08:17:20;;;;;;;32.45;12.20;;;-1.30;99.90;;;;;;5045107;28;20976;-69
2022/12/11 08:19:46;;;;;;;38.67;13.65;;;-1.30;99.90;;;;;;5037555;28;20404;-68
2022/12/11 08:22:13;;;;;;;44.40;14.93;;;-1.30;99.90;;;;;;5049572;28;20044;-70
2022/12/11 08:24:39;;;;;;;42.90;14.88;;;-1.20;99.90;;;;;;5046271;28;20124;-70
2022/12/11 08:27:05;;;;;;;36.55;14.50;;;-1.10;99.90;;;;;;5050257;28;20037;-70
2022/12/11 08:29:31;;;;;;;40.20;14.63;;;-1.10;99.90;;;;;;5049148;28;20041;-70
2022/12/11 08:31:57;;;;;;;43.40;13.75;;;-1.10;99.90;;;;;;5061672;28;20044;-71
2022/12/11 08:34:22;;;;;;;34.92;13.13;;;-1.00;99.90;;;;;;5045243;28;20029;-70
2022/12/11 08:36:48;;;;;;;37.22;12.40;;;-1.00;99.90;;;;;;5049257;28;20520;-71
2022/12/11 08:39:14;;;;;;;37.70;12.55;;;-0.90;99.90;;;;;;5036630;28;20122;-70
2022/12/11 08:41:40;;;;;;;33.53;11.95;;;-0.90;99.90;;;;;;5045661;28;20037;-70
2022/12/11 08:44:10;;;;;;;35.65;13.57;;;-0.90;99.90;;;;;;5042242;28;20041;-70
2022/12/11 08:46:36;;;;;;;38.15;13.77;;;-0.80;99.90;;;;;;5041857;28;20045;-73
2022/12/11 08:49:03;;;;;;;33.28;11.07;;;-0.80;99.90;;;;;;5036357;28;20528;-71
2022/12/11 08:51:29;;;;;;;34.17;12.52;;;-0.80;99.90;;;;;;5041687;28;20773;-70
2022/12/11 08:53:59;;;;;;;36.78;15.10;;;-0.80;99.90;;;;;;5038885;28;20052;-70
2022/12/11 08:56:26;;;;;;;33.85;12.32;;;-0.80;99.90;;;;;;5050926;28;20053;-68
2022/12/11 08:58:53;;;;;;;35.90;13.30;;;-0.80;99.90;;;;;;5048738;28;20215;-69
2022/12/11 09:01:24;;;;;;;36.65;12.80;;;-0.70;99.90;;;;;;5046648;28;20045;-69
2022/12/11 09:03:51;;;;;;;34.10;12.75;;;-0.70;99.90;;;;;;5046705;28;20350;-70
2022/12/11 09:06:19;;;;;;;36.35;13.68;;;-0.70;99.90;;;;;;5040296;28;20067;-70
2022/12/11 09:08:46;;;;;;;30.95;10.93;;;-0.70;99.90;;;;;;5038859;28;20366;-69
2022/12/11 09:11:18;;;;;;;35.63;13.77;;;-0.60;99.90;;;;;;5038916;28;20051;-70
2022/12/11 09:13:44;;;;;;;26.90;11.48;;;-0.50;99.90;;;;;;5046313;28;20680;-70
2022/12/11 09:16:13;;;;;;;34.22;11.93;;;-0.50;99.90;;;;;;5039522;28;20048;-71
2022/12/11 09:18:39;;;;;;;34.80;12.52;;;-0.50;99.90;;;;;;5045857;28;20040;-71
2022/12/11 09:21:07;;;;;;;28.83;11.35;;;-0.60;99.90;;;;;;5057992;28;20128;-70
2022/12/11 09:23:33;;;;;;;33.75;12.82;;;-0.60;99.90;;;;;;5064637;28;20120;-68
2022/12/11 09:26:02;;;;;;;34.83;12.82;;;-0.50;99.90;;;;;;5055235;28;20627;-70
2022/12/11 09:28:28;;;;;;;30.50;11.27;;;-0.50;99.90;;;;;;5042849;28;20060;-70
2022/12/11 09:30:53;;;;;;;29.48;12.50;;;-0.50;99.90;;;;;;5046386;28;20032;-70
2022/12/11 09:33:19;;;;;;;30.83;12.25;;;-0.60;99.90;;;;;;5046396;28;20041;-68
2022/12/11 09:35:45;;;;;;;29.20;11.25;;;-0.50;99.90;;;;;;5047761;28;20120;-70
2022/12/11 09:38:10;;;;;;;32.60;12.38;;;-0.40;99.90;;;;;;5040622;28;20037;-70
2022/12/11 09:40:42;;;;;;;31.85;11.73;;;-0.50;99.90;;;;;;5040956;28;20066;-69
2022/12/11 09:43:30;;;;;;;34.10;12.60;;;-0.50;99.90;;;;;;5046868;28;20048;-68
2022/12/11 09:45:58;;;;;;;35.08;12.25;;;-0.40;99.90;;;;;;5038097;28;20060;-67
2022/12/11 09:48:25;;;;;;;32.42;12.75;;;-0.40;99.90;;;;;;5042319;28;20037;-70
2022/12/11 09:50:53;;;;;;;31.20;12.60;;;-0.40;99.90;;;;;;5045578;28;20116;-69
2022/12/11 09:53:31;;;;;;;22.40;9.15;;;-0.40;99.90;;;;;;5043884;28;20033;-69
2022/12/11 09:56:18;;;;;;;25.83;10.57;;;-0.40;99.90;;;;;;5038460;28;20041;-68
2022/12/11 09:59:00;;;;;;;24.67;9.95;;;-0.40;99.90;;;;;;5059148;28;20724;-70
2022/12/11 10:01:44;;;;;;;28.15;10.65;;;-0.50;99.90;;;;;;5041293;28;20722;-70
2022/12/11 10:04:28;;;;;;;27.13;10.20;;;-0.40;99.90;;;;;;5043114;28;20032;-71
2022/12/11 10:07:08;;;;;;;22.77;9.15;;;-0.40;99.90;;;;;;5051235;28;20479;-71
2022/12/11 10:09:45;;;;;;;17.52;7.53;;;-0.30;99.90;;;;;;5059260;28;20036;-70
2022/12/11 10:12:18;;;;;;;25.35;8.18;;;-0.30;99.90;;;;;;5052591;28;20068;-69
2022/12/11 10:15:24;;;;;;;21.50;8.73;;;-0.30;99.90;;;;;;5044027;28;20048;-68
2022/12/11 10:17:54;;;;;;;22.95;9.07;;;-0.30;99.90;;;;;;5051238;28;20068;-70
2022/12/11 10:20:35;;;;;;;16.67;7.22;;;-0.30;99.90;;;;;;5043582;28;20357;-69
2022/12/11 10:23:03;;;;;;;18.58;7.80;;;-0.40;99.90;;;;;;5047409;28;20068;-70
2022/12/11 10:25:34;;;;;;;15.85;7.38;;;-0.40;99.90;;;;;;5038765;28;20048;-70
2022/12/11 10:28:14;;;;;;;17.48;8.23;;;-0.40;99.90;;;;;;5028342;28;20056;-69
2022/12/11 10:31:09;;;;;;;16.52;7.10;;;-0.40;99.90;;;;;;5038320;28;20123;-70
2022/12/11 10:34:01;;;;;;;15.88;7.97;;;-0.50;99.90;;;;;;5036593;28;20084;-71
2022/12/11 10:36:35;;;;;;;18.40;6.90;;;-0.60;99.90;;;;;;5044144;28;20076;-70
2022/12/11 10:39:09;;;;;;;13.00;6.55;;;-0.80;99.90;;;;;;5038213;28;20099;-70
2022/12/11 10:41:38;;;;;;;18.95;8.50;;;-0.70;99.90;;;;;;5045904;28;20561;-69
2022/12/11 10:44:16;;;;;;;14.70;6.47;;;-0.70;99.90;;;;;;5060667;28;20738;-70
2022/12/11 10:46:43;;;;;;;13.63;6.55;;;-0.70;99.90;;;;;;5051307;28;20032;-70
2022/12/11 10:49:24;;;;;;;16.67;6.47;;;-0.60;99.90;;;;;;5044820;28;20083;-76
2022/12/11 10:51:52;;;;;;;12.73;6.00;;;-0.60;99.90;;;;;;5046595;28;20072;-76
2022/12/11 10:54:38;;;;;;;17.88;6.32;;;-0.70;99.90;;;;;;5035283;28;20037;-72
2022/12/11 10:57:07;;;;;;;14.65;7.10;;;-0.60;99.90;;;;;;5040228;28;20136;-72
2022/12/11 10:59:32;;;;;;;16.38;7.18;;;-0.50;99.90;;;;;;5038468;28;20072;-71
2022/12/11 11:01:59;;;;;;;14.18;6.82;;;-0.50;99.90;;;;;;5040521;28;20067;-75
2022/12/11 11:04:45;;;;;;;16.38;7.45;;;-0.40;99.90;;;;;;5041883;28;20080;-70
2022/12/11 11:07:20;;;;;;;13.57;6.53;;;-0.40;99.90;;;;;;5050362;28;20076;-70
2022/12/11 11:09:46;;;;;;;11.10;5.50;;;-0.50;99.90;;;;;;5050138;28;20094;-71
2022/12/11 11:12:23;;;;;;;14.15;6.18;;;-0.50;99.90;;;;;;5059858;28;20064;-69
2022/12/11 11:15:21;;;;;;;14.63;6.35;;;-0.50;99.90;;;;;;5049255;28;20079;-67
2022/12/11 11:17:54;;;;;;;13.00;5.72;;;-0.60;99.90;;;;;;5039050;28;20076;-68
2022/12/11 11:20:23;;;;;;;13.27;6.03;;;-0.60;99.90;;;;;;5038504;28;20439;-69
2022/12/11 11:22:52;;;;;;;13.15;5.90;;;-0.60;99.90;;;;;;5046495;28;20558;-70
2022/12/11 11:25:21;;;;;;;12.52;5.45;;;-0.50;99.90;;;;;;5033341;28;20042;-69
2022/12/11 11:27:58;;;;;;;11.13;5.50;;;-0.50;99.90;;;;;;5046266;28;20051;-70
2022/12/11 11:30:32;;;;;;;14.98;6.90;;;-0.40;99.90;;;;;;5036314;28;20847;-69
2022/12/11 11:33:03;;;;;;;17.83;6.35;;;-0.40;99.90;;;;;;5036580;28;20033;-71
2022/12/11 11:35:30;;;;;;;15.77;6.50;;;-0.40;99.90;;;;;;5039708;28;20060;-70
2022/12/11 11:38:19;;;;;;;13.18;6.43;;;-0.60;99.90;;;;;;5040577;28;20052;-68
2022/12/11 11:40:48;;;;;;;11.80;5.82;;;-0.90;99.90;;;;;;5040122;28;20048;-70
2022/12/11 11:43:27;;;;;;;15.57;6.82;;;-0.90;99.90;;;;;;5041224;28;20192;-68
2022/12/11 11:46:24;;;;;;;14.98;6.18;;;-0.80;99.90;;;;;;5042037;28;20087;-68
2022/12/11 11:49:19;;;;;;;13.57;6.38;;;-0.80;99.90;;;;;;5035997;28;20048;-71
2022/12/11 11:52:03;;;;;;;13.98;6.30;;;-0.80;99.90;;;;;;5045672;28;20037;-70
2022/12/11 11:54:56;;;;;;;14.93;5.72;;;-0.80;99.90;;;;;;5038500;28;20041;-69
2022/12/11 11:57:36;;;;;;;12.68;5.75;;;-0.70;99.90;;;;;;5041584;28;20057;-71
2022/12/11 12:00:14;;;;;;;14.57;6.80;;;-0.70;99.90;;;;;;5050068;28;20037;-70
2022/12/11 12:02:40;;;;;;;14.43;6.50;;;-0.60;99.90;;;;;;5045005;28;20647;-70
2022/12/11 12:05:12;;;;;;;13.25;6.13;;;-0.50;99.90;;;;;;5038244;28;20032;-68
2022/12/11 12:08:07;;;;;;;16.23;6.63;;;-0.40;99.90;;;;;;5034977;28;20075;-69
2022/12/11 12:10:46;;;;;;;20.40;6.90;;;-0.30;99.90;;;;;;5036739;28;20067;-70
2022/12/11 12:13:31;;;;;;;17.88;7.13;;;-0.20;99.90;;;;;;5034969;28;20168;-68
2022/12/11 12:16:00;;;;;;;13.98;5.78;;;-0.30;99.90;;;;;;5041609;28;20044;-69
2022/12/11 12:18:31;;;;;;;14.10;5.95;;;-0.20;99.90;;;;;;5039600;28;20044;-67
2022/12/11 12:21:18;;;;;;;13.70;6.28;;;-0.30;99.90;;;;;;5045437;28;20101;-67
2022/12/11 12:24:11;;;;;;;14.00;5.97;;;-0.30;99.90;;;;;;5040761;28;20339;-69
2022/12/11 12:27:00;;;;;;;16.15;6.60;;;-0.30;99.90;;;;;;5050110;28;20052;-69
2022/12/11 12:29:47;;;;;;;15.38;6.85;;;-0.20;99.90;;;;;;5041684;28;20096;-69
2022/12/11 12:32:21;;;;;;;13.88;6.82;;;-0.40;99.90;;;;;;5034562;28;20055;-70
2022/12/11 12:35:13;;;;;;;15.88;6.05;;;-0.40;99.90;;;;;;5034997;28;20045;-72
2022/12/11 12:38:00;;;;;;;16.48;7.05;;;-0.30;99.90;;;;;;5036284;28;20053;-73
2022/12/11 12:40:44;;;;;;;;;;;-0.30;99.90;;;;;;5033568;28;20795;-69
2022/12/11 12:43:22;;;;;;;14.27;6.40;;;-0.20;99.90;;;;;;5041559;28;19959;-69
2022/12/11 12:46:22;;;;;;;13.23;6.32;;;-0.10;99.90;;;;;;5038314;28;20785;-70
2022/12/11 12:48:50;;;;;;;14.13;6.20;;;-0.20;99.90;;;;;;5052696;28;20131;-72
2022/12/11 12:51:19;;;;;;;15.77;6.97;;;-0.30;99.90;;;;;;5045962;28;20048;-70
2022/12/11 12:53:53;;;;;;;19.17;7.20;;;-0.30;99.90;;;;;;5048813;28;20038;-73
2022/12/11 12:56:20;;;;;;;20.27;7.68;;;-0.30;99.90;;;;;;5049687;28;20127;-69
2022/12/11 12:58:46;;;;;;;18.08;7.63;;;-0.40;99.90;;;;;;5043182;28;20655;-72